Time;durP1;ratioP1;P1;durP2;ratioP2;P2;SDS_P1;SDS_P2;PMS_P1;PMS_P2;Temp;Humidity;BMP_temperature;BMP_pressure;BME280_temperature;BME280_humidity;BME280_pressure;Samples;Min_cycle;Max_cycle;Signal;HPM_P1;HPM_P2
2021/12/01 00:01:22;;;;;;;3.28;2.17;;;;;;;;;;5055047;28;20456;-82
2021/12/01 00:03:48;;;;;;;3.20;1.90;;;;;;;;;;5072115;28;20046;-80
2021/12/01 00:06:14;;;;;;;3.03;2.05;;;;;;;;;;5063225;28;20051;-82
2021/12/01 00:08:40;;;;;;;3.28;2.08;;;;;;;;;;5064638;28;20062;-80
2021/12/01 00:11:06;;;;;;;3.78;2.20;;;;;;;;;;5054659;28;20032;-80
2021/12/01 00:13:33;;;;;;;2.90;2.00;;;;;;;;;;5059735;28;20025;-84
2021/12/01 00:15:59;;;;;;;2.53;1.90;;;;;;;;;;5057070;28;20038;-82
2021/12/01 00:18:25;;;;;;;2.60;1.80;;;;;;;;;;5071852;28;20028;-82
2021/12/01 00:20:51;;;;;;;3.20;2.15;;;;;;;;;;5049888;28;20505;-80
2021/12/01 00:23:17;;;;;;;3.30;2.40;;;;;;;;;;5056287;28;20058;-83
2021/12/01 00:25:43;;;;;;;3.20;2.05;;;;;;;;;;5081155;28;20406;-82
2021/12/01 00:28:10;;;;;;;4.03;2.58;;;5.10;99.90;;;;;;5079207;28;20032;-80
2021/12/01 00:30:40;;;;;;;3.78;2.28;;;5.20;99.90;;;;;;5073622;28;20039;-80
2021/12/01 00:33:07;;;;;;;4.15;2.90;;;5.20;99.90;;;;;;5075323;28;20035;-84
2021/12/01 00:35:33;;;;;;;4.78;2.88;;;5.10;99.90;;;;;;5057218;28;20042;-80
2021/12/01 00:37:58;;;;;;;4.15;2.83;;;5.10;99.90;;;;;;5077064;28;20028;-83
2021/12/01 00:40:25;;;;;;;3.70;2.60;;;5.20;99.90;;;;;;5077627;28;20063;-86
2021/12/01 00:42:51;;;;;;;3.97;2.70;;;5.10;99.90;;;;;;5061494;28;20100;-83
2021/12/01 00:45:21;;;;;;;4.90;2.90;;;;;;;;;;5071785;28;20060;-85
2021/12/01 00:47:50;;;;;;;5.23;3.10;;;5.10;99.90;;;;;;5076986;28;20421;-82
2021/12/01 00:50:24;;;;;;;4.38;2.70;;;5.20;99.90;;;;;;5060362;28;20043;-84
2021/12/01 00:52:54;;;;;;;4.13;2.53;;;;;;;;;;5063456;28;20048;-79
2021/12/01 00:55:21;;;;;;;6.53;3.90;;;;;;;;;;5075951;28;20553;-81
2021/12/01 00:57:50;;;;;;;4.35;2.50;;;;;;;;;;5056627;28;20525;-83
2021/12/01 01:00:16;;;;;;;4.80;2.70;;;;;;;;;;5074570;28;20398;-80
2021/12/01 01:02:42;;;;;;;4.03;2.85;;;;;;;;;;5055564;28;20029;-82
2021/12/01 01:05:09;;;;;;;3.88;2.78;;;;;;;;;;5058877;28;20036;-79
2021/12/01 01:07:35;;;;;;;5.88;3.38;;;;;;;;;;5055967;28;20256;-82
2021/12/01 01:10:06;;;;;;;5.70;3.67;;;;;;;;;;5061177;28;20039;-79
2021/12/01 01:18:05;;;;;;;5.20;3.53;;;;;;;;;;5073834;28;20043;-79
2021/12/01 01:20:31;;;;;;;5.65;3.70;;;;;;;;;;5067541;28;20020;-82
2021/12/01 01:22:58;;;;;;;8.30;4.65;;;;;;;;;;5056632;28;20033;-83
2021/12/01 01:25:24;;;;;;;7.13;4.60;;;;;;;;;;5057549;28;20070;-83
2021/12/01 01:27:50;;;;;;;7.07;4.82;;;;;;;;;;5051000;28;20405;-83
2021/12/01 01:30:16;;;;;;;10.00;5.78;;;;;;;;;;5050410;28;20108;-80
2021/12/01 01:32:42;;;;;;;11.40;6.50;;;;;;;;;;5050358;28;20028;-82
2021/12/01 01:35:08;;;;;;;9.57;6.13;;;;;;;;;;5054181;28;20029;-84
2021/12/01 01:37:34;;;;;;;8.60;6.05;;;;;;;;;;5052087;28;20040;-81
2021/12/01 01:40:00;;;;;;;13.38;7.43;;;;;;;;;;5067445;28;20036;-81
2021/12/01 01:42:26;;;;;;;12.13;6.57;;;;;;;;;;5051059;28;20497;-79
2021/12/01 01:44:52;;;;;;;11.50;7.35;;;;;;;;;;5051783;28;20028;-81
2021/12/01 01:47:18;;;;;;;12.60;7.60;;;5.50;99.90;;;;;;5051094;28;20810;-82
2021/12/01 01:49:52;;;;;;;25.35;7.65;;;;;;;;;;5053927;28;20544;-81
2021/12/01 01:52:18;;;;;;;16.13;7.15;;;;;;;;;;5052303;28;20045;-80
2021/12/01 01:54:45;;;;;;;12.90;7.15;;;;;;;;;;5046916;28;20103;-86
2021/12/01 01:57:11;;;;;;;13.13;6.97;;;;;;;;;;5051268;28;20025;-85
2021/12/01 01:59:37;;;;;;;10.18;6.82;;;;;;;;;;5074414;28;20055;-81
2021/12/01 02:02:03;;;;;;;12.00;7.13;;;;;;;;;;5052090;28;20028;-81
2021/12/01 02:04:33;;;;;;;16.25;8.30;;;;;;;;;;5068309;28;20033;-79
2021/12/01 02:06:59;;;;;;;14.38;7.80;;;;;;;;;;5068610;28;20111;-78
2021/12/01 02:09:25;;;;;;;15.40;8.63;;;;;;;;;;5070352;28;20576;-83
2021/12/01 02:11:52;;;;;;;13.88;7.88;;;;;;;;;;5078106;28;20031;-81
2021/12/01 02:14:18;;;;;;;11.07;7.35;;;;;;;;;;5054525;28;20028;-81
2021/12/01 02:16:45;;;;;;;10.43;6.07;;;;;;;;;;5069084;28;20028;-80
2021/12/01 02:19:11;;;;;;;10.68;6.43;;;;;;;;;;5055102;28;20085;-84
2021/12/01 02:21:37;;;;;;;9.20;6.20;;;;;;;;;;5054052;28;20026;-82
2021/12/01 02:24:08;;;;;;;9.18;5.47;;;;;;;;;;5056520;28;20084;-79
2021/12/01 02:26:40;;;;;;;10.85;6.75;;;5.70;99.90;;;;;;5053610;28;20029;-81
2021/12/01 02:29:08;;;;;;;11.15;6.18;;;;;;;;;;5065842;28;20033;-80
2021/12/01 02:31:36;;;;;;;12.90;5.95;;;;;;;;;;5047455;28;20444;-83
2021/12/01 02:34:07;;;;;;;8.38;5.43;;;;;;;;;;5052410;28;20151;-82
2021/12/01 02:36:33;;;;;;;8.27;4.63;;;;;;;;;;5053205;28;20046;-82
2021/12/01 02:38:59;;;;;;;9.27;5.68;;;;;;;;;;5051021;28;20032;-79
2021/12/01 02:41:26;;;;;;;9.77;5.13;;;;;;;;;;5044907;28;20367;-83
2021/12/01 02:43:52;;;;;;;6.93;4.63;;;;;;;;;;5052909;28;20036;-79
2021/12/01 02:46:18;;;;;;;8.73;4.82;;;;;;;;;;5049214;28;20052;-79
2021/12/01 02:48:46;;;;;;;8.43;5.13;;;;;;;;;;5070881;28;20028;-80
2021/12/01 02:51:12;;;;;;;8.02;5.07;;;;;;;;;;5069543;28;20027;-79
2021/12/01 02:53:39;;;;;;;8.52;4.55;;;;;;;;;;5054185;28;20166;-80
2021/12/01 02:56:06;;;;;;;7.85;5.10;;;;;;;;;;5047100;28;20154;-80
2021/12/01 02:58:33;;;;;;;9.35;5.40;;;;;;;;;;5066165;28;20029;-82
2021/12/01 03:01:06;;;;;;;7.50;5.05;;;5.80;99.90;;;;;;5048966;28;20437;-80
2021/12/01 03:03:32;;;;;;;9.07;5.85;;;;;;;;;;5047615;28;20643;-82
2021/12/01 03:05:59;;;;;;;10.30;5.50;;;;;;;;;;5051066;28;20085;-81
2021/12/01 03:08:25;;;;;;;8.88;4.97;;;;;;;;;;5052608;28;21984;-82
2021/12/01 03:10:52;;;;;;;7.30;4.90;;;;;;;;;;5069973;28;20038;-81
2021/12/01 03:13:19;;;;;;;10.30;5.40;;;;;;;;;;5071405;28;20029;-83
2021/12/01 03:15:45;;;;;;;8.15;5.38;;;;;;;;;;5046822;28;20078;-80
2021/12/01 03:18:13;;;;;;;8.75;5.15;;;5.50;99.90;;;;;;5063132;28;20052;-80
2021/12/01 03:20:39;;;;;;;11.63;5.05;;;;;;;;;;5055945;28;20466;-81
2021/12/01 03:23:05;;;;;;;11.05;5.95;;;;;;;;;;5053518;28;20448;-82
2021/12/01 03:25:32;;;;;;;7.72;4.85;;;;;;;;;;5051205;28;20036;-79
2021/12/01 03:27:58;;;;;;;8.68;5.22;;;;;;;;;;5055885;28;20036;-82
2021/12/01 03:30:24;;;;;;;9.68;5.47;;;;;;;;;;5059170;28;20093;-81
2021/12/01 03:32:50;;;;;;;10.02;5.60;;;;;;;;;;5076251;28;20028;-78
2021/12/01 03:35:16;;;;;;;10.93;6.03;;;;;;;;;;5066599;28;20032;-84
2021/12/01 03:37:43;;;;;;;9.52;5.63;;;;;;;;;;5073190;28;20379;-85
2021/12/01 03:40:11;;;;;;;8.15;5.38;;;;;;;;;;5059269;28;20111;-82
2021/12/01 03:42:37;;;;;;;9.38;5.47;;;;;;;;;;5069609;28;20062;-83
2021/12/01 03:45:04;;;;;;;8.85;5.50;;;;;;;;;;5057764;28;20045;-79
2021/12/01 03:47:30;;;;;;;8.15;4.45;;;;;;;;;;5065109;28;20041;-85
2021/12/01 03:49:56;;;;;;;6.78;4.60;;;;;;;;;;5060944;28;20024;-84
2021/12/01 03:52:24;;;;;;;8.45;4.60;;;;;;;;;;5057988;28;20024;-82
2021/12/01 03:54:50;;;;;;;8.27;4.85;;;;;;;;;;5062072;28;20036;-83
2021/12/01 03:57:16;;;;;;;6.80;3.85;;;;;;;;;;5060769;28;20032;-83
2021/12/01 03:59:43;;;;;;;8.38;4.68;;;;;;;;;;5053755;28;20047;-80
2021/12/01 04:02:09;;;;;;;7.35;4.60;;;;;;;;;;5078812;28;20054;-81
2021/12/01 04:04:36;;;;;;;7.07;3.90;;;;;;;;;;5053274;28;20017;-80
2021/12/01 04:07:02;;;;;;;9.27;4.53;;;;;;;;;;5068214;28;20039;-81
2021/12/01 04:09:28;;;;;;;6.47;4.18;;;;;;;;;;5050683;28;20070;-82
2021/12/01 04:11:54;;;;;;;7.00;4.07;;;;;;;;;;5054904;28;20039;-82
2021/12/01 04:14:20;;;;;;;8.63;4.22;;;;;;;;;;5073776;28;20053;-81
2021/12/01 04:16:46;;;;;;;6.95;3.85;;;;;;;;;;5057018;28;20024;-79
2021/12/01 04:19:13;;;;;;;7.57;4.20;;;;;;;;;;5053424;28;20086;-80
2021/12/01 04:21:39;;;;;;;6.35;4.10;;;;;;;;;;5054973;28;20033;-83
2021/12/01 04:24:05;;;;;;;6.43;3.92;;;;;;;;;;5070042;28;20037;-78
2021/12/01 04:26:33;;;;;;;7.72;4.28;;;;;;;;;;5058573;28;21485;-80
2021/12/01 04:28:59;;;;;;;6.95;4.20;;;;;;;;;;5075937;28;20021;-82
2021/12/01 04:31:26;;;;;;;9.10;4.10;;;;;;;;;;5076501;28;20069;-79
2021/12/01 04:33:52;;;;;;;6.28;4.40;;;;;;;;;;5059390;28;20032;-81
2021/12/01 04:36:20;;;;;;;8.00;4.05;;;;;;;;;;5054310;28;20277;-81
2021/12/01 04:38:46;;;;;;;9.05;3.30;;;;;;;;;;5076312;28;20350;-81
2021/12/01 04:41:14;;;;;;;7.22;3.80;;;;;;;;;;5062352;28;20123;-85
2021/12/01 04:43:40;;;;;;;7.15;4.07;;;5.80;99.90;;;;;;5057632;28;20071;-80
2021/12/01 04:46:06;;;;;;;8.27;4.57;;;;;;;;;;5055806;28;20047;-79
2021/12/01 04:48:33;;;;;;;5.65;4.13;;;;;;;;;;5054871;28;20032;-80
2021/12/01 04:51:00;;;;;;;6.72;4.13;;;;;;;;;;5067148;28;20060;-82
2021/12/01 04:53:26;;;;;;;5.75;3.63;;;;;;;;;;5067416;28;20029;-79
2021/12/01 04:55:53;;;;;;;6.50;3.65;;;5.90;99.90;;;;;;5056511;28;20107;-81
2021/12/01 04:58:20;;;;;;;7.60;4.55;;;;;;;;;;5051019;28;20364;-83
2021/12/01 05:00:46;;;;;;;5.97;3.50;;;;;;;;;;5073795;28;20047;-81
2021/12/01 05:03:12;;;;;;;5.72;3.53;;;;;;;;;;5061346;28;20028;-83
2021/12/01 05:05:38;;;;;;;12.05;3.95;;;;;;;;;;5067300;28;20032;-82
2021/12/01 05:08:05;;;;;;;7.05;4.05;;;;;;;;;;5064219;28;20039;-83
2021/12/01 05:10:31;;;;;;;5.05;2.95;;;;;;;;;;5049945;28;20029;-80
2021/12/01 05:12:57;;;;;;;7.97;3.72;;;;;;;;;;5053258;28;20032;-84
2021/12/01 05:15:23;;;;;;;6.15;3.47;;;;;;;;;;5073531;28;20044;-83
2021/12/01 05:17:49;;;;;;;4.47;3.25;;;;;;;;;;5057413;28;20023;-80
2021/12/01 05:20:16;;;;;;;5.22;3.33;;;;;;;;;;5073673;28;20024;-81
2021/12/01 05:22:44;;;;;;;5.63;2.85;;;;;;;;;;5072546;28;20033;-84
2021/12/01 05:25:10;;;;;;;5.30;3.00;;;;;;;;;;5054819;28;20040;-82
2021/12/01 05:27:36;;;;;;;4.72;2.80;;;;;;;;;;5068245;28;20160;-80
2021/12/01 05:30:03;;;;;;;6.18;3.50;;;;;;;;;;5071714;28;20084;-83
2021/12/01 05:32:30;;;;;;;4.97;3.08;;;;;;;;;;5052084;28;20028;-80
2021/12/01 05:34:56;;;;;;;5.32;3.25;;;;;;;;;;5055493;28;20024;-83
2021/12/01 05:37:22;;;;;;;6.10;3.30;;;;;;;;;;5070040;28;20025;-79
2021/12/01 05:39:48;;;;;;;6.03;3.60;;;;;;;;;;5053152;28;20032;-83
2021/12/01 05:42:16;;;;;;;6.38;3.30;;;;;;;;;;5060841;28;20075;-80
2021/12/01 05:44:43;;;;;;;4.03;2.78;;;;;;;;;;5075739;28;20020;-81
2021/12/01 05:47:09;;;;;;;6.80;3.50;;;;;;;;;;5052677;28;20065;-81
2021/12/01 05:49:42;;;;;;;5.07;2.97;;;;;;;;;;5054785;28;20028;-82
2021/12/01 05:52:14;;;;;;;5.22;3.05;;;;;;;;;;5050351;28;20139;-81
2021/12/01 05:54:41;;;;;;;5.30;3.30;;;;;;;;;;5064279;28;20035;-81
2021/12/01 05:57:07;;;;;;;4.63;3.53;;;;;;;;;;5071279;28;20052;-81
2021/12/01 05:59:34;;;;;;;6.20;3.20;;;;;;;;;;5069411;28;20094;-83
2021/12/01 06:02:00;;;;;;;6.40;3.85;;;;;;;;;;5046578;28;20132;-83
2021/12/01 06:04:27;;;;;;;5.72;4.00;;;;;;;;;;5042621;28;20119;-79
2021/12/01 06:06:53;;;;;;;7.28;3.55;;;;;;;;;;5068853;28;20393;-82
2021/12/01 06:09:19;;;;;;;4.80;3.33;;;;;;;;;;5070350;28;20033;-80
2021/12/01 06:11:47;;;;;;;6.40;3.53;;;;;;;;;;5052766;28;20024;-80
2021/12/01 06:14:14;;;;;;;6.28;3.90;;;6.10;99.90;;;;;;5055472;28;20418;-79
2021/12/01 06:16:41;;;;;;;5.10;3.25;;;;;;;;;;5067116;28;21285;-80
2021/12/01 06:19:07;;;;;;;6.65;3.30;;;;;;;;;;5050100;28;20045;-82
2021/12/01 06:21:33;;;;;;;6.05;3.13;;;;;;;;;;5054123;28;20480;-81
2021/12/01 06:23:59;;;;;;;4.35;3.05;;;;;;;;;;5063504;28;20163;-80
2021/12/01 06:26:25;;;;;;;4.57;2.78;;;;;;;;;;5064423;28;20047;-81
2021/12/01 06:28:51;;;;;;;5.13;3.28;;;;;;;;;;5052162;28;20072;-82
2021/12/01 06:31:18;;;;;;;5.15;2.90;;;;;;;;;;5047091;28;20051;-83
2021/12/01 06:33:44;;;;;;;4.72;2.60;;;;;;;;;;5054656;28;20035;-81
2021/12/01 06:36:10;;;;;;;4.60;3.10;;;;;;;;;;5050959;28;20024;-81
2021/12/01 06:38:39;;;;;;;5.55;3.40;;;;;;;;;;5049341;28;20028;-81
2021/12/01 06:41:06;;;;;;;5.45;2.47;;;;;;;;;;5048940;28;20039;-79
2021/12/01 06:43:32;;;;;;;3.83;2.45;;;;;;;;;;5064353;28;20032;-85
2021/12/01 06:45:58;;;;;;;3.40;2.17;;;;;;;;;;5053404;28;20036;-84
2021/12/01 06:48:24;;;;;;;3.47;2.25;;;;;;;;;;5073169;28;20029;-84
2021/12/01 06:50:50;;;;;;;3.60;2.00;;;;;;;;;;5046063;28;20036;-81
2021/12/01 06:53:16;;;;;;;8.68;2.47;;;;;;;;;;5056408;28;20310;-80
2021/12/01 06:55:43;;;;;;;4.25;2.42;;;;;;;;;;5062293;28;20024;-82
2021/12/01 06:58:09;;;;;;;4.53;2.38;;;;;;;;;;5053774;28;20090;-82
2021/12/01 07:00:35;;;;;;;4.97;2.33;;;;;;;;;;5052938;28;20032;-85
2021/12/01 07:03:01;;;;;;;2.88;1.95;;;;;;;;;;5035712;28;20040;-85
2021/12/01 07:05:27;;;;;;;3.80;2.30;;;;;;;;;;5050045;28;20035;-82
2021/12/01 07:07:54;;;;;;;3.17;2.00;;;;;;;;;;5056039;28;20682;-81
2021/12/01 07:10:20;;;;;;;3.45;2.25;;;;;;;;;;5043824;28;20475;-82
2021/12/01 07:12:46;;;;;;;3.47;2.28;;;;;;;;;;5047189;28;20055;-83
2021/12/01 07:15:12;;;;;;;3.53;2.05;;;6.20;99.90;;;;;;5046331;28;20436;-84
2021/12/01 07:17:39;;;;;;;3.38;2.10;;;;;;;;;;5054344;28;20032;-85
2021/12/01 07:20:06;;;;;;;4.40;2.42;;;;;;;;;;5067319;28;20092;-82
2021/12/01 07:22:32;;;;;;;2.30;1.50;;;;;;;;;;5047804;28;20036;-84
2021/12/01 07:24:58;;;;;;;2.88;1.70;;;;;;;;;;5045727;28;20048;-85
2021/12/01 07:27:24;;;;;;;2.55;1.48;;;;;;;;;;5042001;28;20554;-85
2021/12/01 07:29:50;;;;;;;2.38;1.50;;;;;;;;;;5051572;28;20032;-84
2021/12/01 07:32:16;;;;;;;4.45;2.15;;;;;;;;;;5035509;28;20512;-84
2021/12/01 07:34:42;;;;;;;4.15;2.13;;;;;;;;;;5046585;28;20431;-81
2021/12/01 07:37:12;;;;;;;3.70;1.73;;;;;;;;;;5065146;28;20029;-84
2021/12/01 07:39:39;;;;;;;2.67;1.70;;;;;;;;;;5043329;28;20025;-85
2021/12/01 07:42:05;;;;;;;2.65;1.90;;;;;;;;;;5039612;28;20033;-84
2021/12/01 07:44:32;;;;;;;3.97;1.90;;;;;;;;;;5060737;28;20039;-82
2021/12/01 07:46:58;;;;;;;3.78;1.70;;;;;;;;;;5058062;28;20025;-83
2021/12/01 07:49:24;;;;;;;2.70;1.83;;;;;;;;;;5044944;28;20029;-81
2021/12/01 07:51:50;;;;;;;3.67;1.85;;;;;;;;;;5040516;28;20087;-83
2021/12/01 07:54:16;;;;;;;3.08;1.65;;;;;;;;;;5046363;28;20032;-84
2021/12/01 07:56:42;;;;;;;4.30;1.90;;;;;;;;;;5040992;28;20035;-81
2021/12/01 07:59:10;;;;;;;2.90;1.50;;;;;;;;;;5039931;28;20043;-82
2021/12/01 08:01:36;;;;;;;2.33;1.67;;;;;;;;;;5062243;28;20039;-84
2021/12/01 08:04:03;;;;;;;2.70;1.80;;;;;;;;;;5044661;28;20081;-83
2021/12/01 08:06:32;;;;;;;2.88;1.73;;;;;;;;;;5063047;28;20431;-79
2021/12/01 08:09:00;;;;;;;2.90;1.77;;;;;;;;;;5054135;28;20025;-85
2021/12/01 08:11:26;;;;;;;2.67;1.50;;;;;;;;;;5036523;28;20425;-83
2021/12/01 08:13:52;;;;;;;5.32;2.45;;;;;;;;;;5047386;28;20037;-80
2021/12/01 08:16:18;;;;;;;3.33;1.58;;;;;;;;;;5052380;28;20061;-83
2021/12/01 08:18:45;;;;;;;4.75;2.45;;;;;;;;;;5057173;28;20028;-85
2021/12/01 08:21:11;;;;;;;2.40;1.42;;;;;;;;;;5070759;28;20029;-80
2021/12/01 08:23:38;;;;;;;3.38;1.40;;;;;;;;;;5056492;28;20088;-82
2021/12/01 08:26:04;;;;;;;3.13;1.40;;;;;;;;;;5046554;28;20029;-86
2021/12/01 08:28:30;;;;;;;2.65;1.70;;;;;;;;;;5069809;28;20044;-80
2021/12/01 08:30:56;;;;;;;3.53;1.67;;;;;;;;;;5043459;28;20033;-82
2021/12/01 08:33:22;;;;;;;2.47;1.60;;;;;;;;;;5044975;28;20020;-85
2021/12/01 08:35:48;;;;;;;3.70;1.23;;;;;;;;;;5048868;28;20045;-81
2021/12/01 08:38:14;;;;;;;3.15;1.40;;;;;;;;;;5039811;28;20079;-84
2021/12/01 08:40:40;;;;;;;2.17;1.38;;;;;;;;;;5072551;28;20108;-84
2021/12/01 08:43:06;;;;;;;2.40;1.30;;;;;;;;;;5058061;28;20009;-84
2021/12/01 08:45:33;;;;;;;2.28;1.27;;;;;;;;;;5051281;28;20060;-84
2021/12/01 08:47:59;;;;;;;2.05;1.27;;;;;;;;;;5049906;28;20025;-82
2021/12/01 08:50:25;;;;;;;2.78;1.60;;;;;;;;;;5044985;28;20233;-86
2021/12/01 08:52:51;;;;;;;2.78;1.30;;;;;;;;;;5070573;28;20063;-81
2021/12/01 08:55:21;;;;;;;2.50;1.33;;;;;;;;;;5044740;28;20083;-84
2021/12/01 08:57:47;;;;;;;2.20;1.23;;;;;;;;;;5047035;28;20055;-81
2021/12/01 09:00:14;;;;;;;6.85;2.38;;;;;;;;;;5046484;28;20059;-79
2021/12/01 09:02:40;;;;;;;2.17;1.13;;;;;;;;;;5049648;28;20075;-84
2021/12/01 09:05:06;;;;;;;1.95;1.25;;;;;;;;;;5050872;28;20037;-81
2021/12/01 09:07:32;;;;;;;1.60;1.02;;;;;;;;;;5054695;28;20036;-82
2021/12/01 09:09:58;;;;;;;1.88;1.10;;;;;;;;;;5055551;28;20059;-82
2021/12/01 09:12:24;;;;;;;2.17;1.27;;;;;;;;;;5059345;28;20024;-84
2021/12/01 09:14:52;;;;;;;1.63;0.90;;;;;;;;;;5079648;28;20095;-81
2021/12/01 09:17:18;;;;;;;3.65;1.10;;;;;;;;;;5050981;28;20079;-84
2021/12/01 09:19:44;;;;;;;1.85;1.13;;;;;;;;;;5057652;28;20654;-84
2021/12/01 09:22:10;;;;;;;3.00;1.23;;;;;;;;;;5050321;28;20449;-87
2021/12/01 09:24:37;;;;;;;2.15;1.10;;;;;;;;;;5050866;28;20036;-83
2021/12/01 09:27:03;;;;;;;1.83;0.90;;;;;;;;;;5069484;28;20066;-83
2021/12/01 09:29:29;;;;;;;2.08;1.10;;;;;;;;;;5069598;28;20060;-84
2021/12/01 09:31:59;;;;;;;2.25;1.20;;;;;;;;;;5057831;28;20021;-81
2021/12/01 09:34:25;;;;;;;2.70;1.20;;;;;;;;;;5042966;28;20039;-82
2021/12/01 09:36:51;;;;;;;2.20;1.30;;;;;;;;;;5039273;28;20536;-85
2021/12/01 09:39:17;;;;;;;1.52;1.02;;;;;;;;;;5043149;28;20043;-83
2021/12/01 09:41:44;;;;;;;1.63;1.20;;;;;;;;;;5044542;28;20612;-84
2021/12/01 09:44:10;;;;;;;2.35;1.20;;;;;;;;;;5043101;28;20119;-85
2021/12/01 09:46:36;;;;;;;1.42;0.90;;;;;;;;;;5045401;28;20115;-86
2021/12/01 09:49:02;;;;;;;2.28;1.20;;;;;;;;;;5060397;28;20029;-82
2021/12/01 09:51:28;;;;;;;1.63;1.00;;;;;;;;;;5045652;28;20031;-87
2021/12/01 09:53:55;;;;;;;1.73;1.08;;;;;;;;;;5039121;28;20036;-87
2021/12/01 09:56:21;;;;;;;1.98;1.10;;;;;;;;;;5064378;28;20076;-82
2021/12/01 09:58:50;;;;;;;2.38;0.98;;;;;;;;;;5063869;28;20025;-83
2021/12/01 10:01:18;;;;;;;1.95;1.00;;;;;;;;;;5046103;28;20036;-88
2021/12/01 10:03:47;;;;;;;1.67;0.82;;;;;;;;;;5048465;28;20029;-87
2021/12/01 10:06:23;;;;;;;1.83;1.00;;;;;;;;;;5039344;28;20083;-82
2021/12/01 10:08:54;;;;;;;2.20;1.05;;;;;;;;;;5056637;28;20116;-81
2021/12/01 10:11:20;;;;;;;;;;;;;;;;;;5046916;28;20170;-84
2021/12/01 10:13:51;;;;;;;1.52;1.20;;;;;;;;;;5059593;28;19980;-83
2021/12/01 10:16:19;;;;;;;1.95;1.00;;;;;;;;;;5059019;28;20025;-87
2021/12/01 10:18:47;;;;;;;1.75;1.00;;;;;;;;;;5044165;28;20722;-83
2021/12/01 10:21:22;;;;;;;1.27;0.88;;;;;;;;;;5037034;28;20025;-82
2021/12/01 10:23:50;;;;;;;1.48;0.90;;;;;;;;;;5063000;28;20461;-86
2021/12/01 10:26:19;;;;;;;1.42;0.93;;;7.20;99.90;;;;;;5041952;28;20997;-83
2021/12/01 10:29:05;;;;;;;1.30;0.90;;;;;;;;;;5056824;28;20390;-83
2021/12/01 10:31:42;;;;;;;0.93;0.70;;;;;;;;;;5059667;28;20047;-80
2021/12/01 10:34:19;;;;;;;1.85;1.30;;;;;;;;;;5055945;28;20079;-81
2021/12/01 10:36:46;;;;;;;1.75;1.15;;;;;;;;;;5048791;28;20025;-81
2021/12/01 10:39:12;;;;;;;2.92;1.27;;;;;;;;;;5043450;28;20048;-85
2021/12/01 10:41:40;;;;;;;2.17;1.27;;;7.20;99.90;;;;;;5042250;28;20028;-85
2021/12/01 10:44:11;;;;;;;3.60;1.30;;;7.20;99.90;;;;;;5042573;28;20502;-84
2021/12/01 10:47:03;;;;;;;3.28;1.52;;;;;;;;;;5044790;28;20039;-87
2021/12/01 10:49:40;;;;;;;2.75;1.40;;;7.20;99.90;;;;;;5058746;28;20131;-83
2021/12/01 10:52:07;;;;;;;2.75;1.20;;;;;;;;;;5065502;28;20537;-83
2021/12/01 10:54:35;;;;;;;1.92;1.38;;;;;;;;;;5062232;28;20032;-82
2021/12/01 10:57:18;;;;;;;4.00;1.73;;;;;;;;;;5045083;28;20386;-87
2021/12/01 10:59:47;;;;;;;2.35;1.20;;;;;;;;;;5060273;28;20100;-85
2021/12/01 11:02:15;;;;;;;2.22;1.27;;;7.40;99.90;;;;;;5042965;28;20121;-82
2021/12/01 11:04:43;;;;;;;2.40;1.60;;;;;;;;;;5045899;28;20386;-85
2021/12/01 11:07:29;;;;;;;2.95;1.10;;;7.50;99.90;;;;;;5059990;28;20035;-83
2021/12/01 11:10:19;;;;;;;1.90;1.20;;;7.50;99.90;;;;;;5060868;28;20402;-84
2021/12/01 11:13:01;;;;;;;2.90;1.70;;;;;;;;;;5064389;28;20082;-84
2021/12/01 11:15:31;;;;;;;2.25;1.40;;;;;;;;;;5042844;28;20035;-85
2021/12/01 11:17:58;;;;;;;2.03;1.27;;;;;;;;;;5057777;28;20052;-83
2021/12/01 11:20:41;;;;;;;2.03;1.30;;;;;;;;;;5044520;28;21963;-81
2021/12/01 11:23:21;;;;;;;5.20;2.20;;;7.70;99.90;;;;;;5062836;28;20121;-81
2021/12/01 11:26:19;;;;;;;2.30;1.42;;;7.40;99.90;;;;;;5048885;28;20486;-83
2021/12/01 11:28:49;;;;;;;2.30;1.50;;;7.40;99.90;;;;;;5041644;28;20065;-83
2021/12/01 11:31:19;;;;;;;2.17;1.25;;;7.40;99.90;;;;;;5049634;28;20477;-86
2021/12/01 11:33:46;;;;;;;2.13;1.40;;;7.40;99.90;;;;;;5042195;28;20032;-83
2021/12/01 11:36:18;;;;;;;2.55;1.58;;;7.40;99.90;;;;;;5048618;28;20576;-85
2021/12/01 11:38:49;;;;;;;1.50;1.17;;;7.40;99.90;;;;;;5046186;28;20055;-84
2021/12/01 11:41:15;;;;;;;;;;;7.30;99.90;;;;;;5051375;28;20032;-82
2021/12/01 11:43:41;;;;;;;2.15;1.23;;;7.40;99.90;;;;;;5051242;28;19908;-84
2021/12/01 11:46:08;;;;;;;2.30;1.42;;;7.40;99.90;;;;;;5044059;28;20112;-81
2021/12/01 11:48:42;;;;;;;2.33;1.42;;;7.40;99.90;;;;;;5052800;28;20024;-84
2021/12/01 11:51:15;;;;;;;4.00;1.45;;;7.40;99.90;;;;;;5048375;28;20151;-84
2021/12/01 11:53:45;;;;;;;2.50;1.50;;;7.20;99.90;;;;;;5049948;28;20035;-81
2021/12/01 11:56:11;;;;;;;2.40;1.50;;;;;;;;;;5049402;28;20067;-87
2021/12/01 11:58:45;;;;;;;2.83;1.65;;;;;;;;;;5048450;28;20486;-82
2021/12/01 12:01:32;;;;;;;1.67;1.20;;;7.50;99.90;;;;;;5042896;28;20032;-80
2021/12/01 12:04:01;;;;;;;1.95;1.35;;;7.50;99.90;;;;;;5045795;28;20032;-85
2021/12/01 12:06:27;;;;;;;2.33;1.50;;;;;;;;;;5053122;28;20025;-81
2021/12/01 12:09:00;;;;;;;2.40;1.50;;;7.50;99.90;;;;;;5064779;28;20123;-85
2021/12/01 12:11:44;;;;;;;2.97;1.50;;;7.50;99.90;;;;;;5048640;28;20043;-85
2021/12/01 12:14:10;;;;;;;2.15;1.55;;;7.60;99.90;;;;;;5067204;28;20025;-81
2021/12/01 12:16:40;;;;;;;2.20;1.30;;;7.40;99.90;;;;;;5044530;28;20126;-86
2021/12/01 12:19:06;;;;;;;2.60;1.27;;;7.40;99.90;;;;;;5049163;28;20028;-84
2021/12/01 12:24:16;;;;;;;2.20;1.50;;;7.50;99.90;;;;;;5070761;28;20081;-82
2021/12/01 12:26:53;;;;;;;3.30;1.58;;;7.40;99.90;;;;;;5050163;28;20033;-87
2021/12/01 12:29:24;;;;;;;2.70;1.40;;;7.40;99.90;;;;;;5047491;28;20043;-85
2021/12/01 12:31:52;;;;;;;2.55;1.52;;;7.40;99.90;;;;;;5061752;28;20453;-86
2021/12/01 12:34:20;;;;;;;2.17;1.60;;;7.40;99.90;;;;;;5046528;28;20037;-86
2021/12/01 12:36:53;;;;;;;2.28;1.63;;;7.50;99.90;;;;;;5043255;28;20024;-81
2021/12/01 12:39:46;;;;;;;2.85;1.58;;;7.50;99.90;;;;;;5043420;28;20028;-86
2021/12/01 12:42:13;;;;;;;2.97;1.67;;;7.60;99.90;;;;;;5044529;28;20108;-83
2021/12/01 12:44:44;;;;;;;3.00;1.52;;;7.50;99.90;;;;;;5042912;28;20032;-86
2021/12/01 12:47:14;;;;;;;2.30;1.50;;;;;;;;;;5040557;28;20035;-86
2021/12/01 12:49:52;;;;;;;3.50;1.80;;;7.50;99.90;;;;;;5066204;28;20742;-84
2021/12/01 12:52:37;;;;;;;3.00;1.77;;;;;;;;;;5066257;28;20037;-84
2021/12/01 12:55:23;;;;;;;4.10;1.85;;;7.70;99.90;;;;;;5043072;28;20564;-84
2021/12/01 12:57:58;;;;;;;2.67;1.55;;;7.70;99.90;;;;;;5042524;28;20036;-86
2021/12/01 13:00:31;;;;;;;2.10;1.58;;;7.70;99.90;;;;;;5041874;28;20043;-85
2021/12/01 13:03:22;;;;;;;2.42;1.60;;;7.70;99.90;;;;;;5047996;28;20037;-88
2021/12/01 13:05:50;;;;;;;3.15;1.75;;;7.70;99.90;;;;;;5036828;28;20151;-87
2021/12/01 13:08:45;;;;;;;3.38;1.90;;;7.60;99.90;;;;;;5047025;28;20078;-86
2021/12/01 13:11:17;;;;;;;3.78;1.92;;;7.60;99.90;;;;;;5045463;28;20044;-85
2021/12/01 13:13:48;;;;;;;2.15;1.70;;;7.60;99.90;;;;;;5050274;28;20110;-85
2021/12/01 13:16:16;;;;;;;3.78;2.30;;;7.70;99.90;;;;;;5059434;28;20099;-87
2021/12/01 13:18:45;;;;;;;2.70;1.77;;;;;;;;;;5052241;28;20047;-88
2021/12/01 13:21:12;;;;;;;3.10;2.08;;;;;;;;;;5061541;28;20123;-82
2021/12/01 13:23:40;;;;;;;2.65;1.77;;;;;;;;;;5071786;28;20100;-86
2021/12/01 13:26:18;;;;;;;2.30;1.40;;;;;;;;;;5053129;28;20249;-86
2021/12/01 13:28:46;;;;;;;1.77;1.50;;;;;;;;;;5050949;28;20032;-86
2021/12/01 13:31:14;;;;;;;1.95;1.33;;;;;;;;;;5055528;28;20036;-84
2021/12/01 13:34:11;;;;;;;2.78;1.40;;;8.00;99.90;;;;;;5051848;28;20059;-83
2021/12/01 13:36:41;;;;;;;2.97;1.70;;;7.70;99.90;;;;;;5071263;28;20040;-85
2021/12/01 13:39:12;;;;;;;1.50;1.00;;;;;;;;;;5052057;28;20036;-85
2021/12/01 13:41:45;;;;;;;3.22;1.50;;;;;;;;;;5066342;28;20036;-84
2021/12/01 13:44:11;;;;;;;2.88;1.60;;;;;;;;;;5058629;28;20422;-83
2021/12/01 13:46:38;;;;;;;3.22;1.67;;;;;;;;;;5058413;28;20512;-83
2021/12/01 13:49:05;;;;;;;3.00;1.70;;;;;;;;;;5062487;28;20031;-86
2021/12/01 13:51:36;;;;;;;2.80;1.70;;;;;;;;;;5069932;28;20025;-85
2021/12/01 13:54:16;;;;;;;4.05;1.80;;;7.80;99.90;;;;;;5046002;28;20112;-88
2021/12/01 13:56:42;;;;;;;5.75;1.90;;;;;;;;;;5051054;28;20398;-86
2021/12/01 13:59:08;;;;;;;2.88;2.08;;;;;;;;;;5050956;28;20498;-84
2021/12/01 14:01:34;;;;;;;3.08;1.90;;;;;;;;;;5068485;28;20028;-84
2021/12/01 14:04:05;;;;;;;3.17;2.00;;;;;;;;;;5055621;28;20043;-84
2021/12/01 14:06:33;;;;;;;4.43;1.80;;;;;;;;;;5063760;28;20024;-82
2021/12/01 14:09:04;;;;;;;2.58;1.73;;;;;;;;;;5054525;28;20038;-89
2021/12/01 14:11:36;;;;;;;3.35;1.80;;;;;;;;;;5063006;28;20060;-89
2021/12/01 14:14:06;;;;;;;4.72;2.08;;;;;;;;;;5052228;28;20047;-87
2021/12/01 14:16:34;;;;;;;3.20;1.70;;;;;;;;;;5059868;28;20036;-86
2021/12/01 14:19:03;;;;;;;5.85;2.55;;;;;;;;;;5048332;28;20410;-88
2021/12/01 14:21:32;;;;;;;2.38;1.58;;;;;;;;;;5045436;28;20424;-88
2021/12/01 14:24:01;;;;;;;2.40;1.70;;;;;;;;;;5063710;28;20028;-86
2021/12/01 14:26:31;;;;;;;2.72;1.55;;;;;;;;;;5039356;28;20040;-87
2021/12/01 14:29:00;;;;;;;2.50;1.45;;;;;;;;;;5060177;28;20539;-88
2021/12/01 14:31:26;;;;;;;3.22;1.30;;;;;;;;;;5061520;28;20029;-87
2021/12/01 14:34:07;;;;;;;2.92;1.48;;;;;;;;;;5073435;28;20091;-85
2021/12/01 14:36:34;;;;;;;1.60;1.10;;;;;;;;;;5055504;28;20115;-86